KGSH/GSH METAR and TAF weather

Enter ICAO airport designator
Station Type Date Time Source
KGSH METAR 2019/10/18 10:53 UTC NOAA

KGSH 181053Z AUTO 00000KT 3SM BR CLR 01/01 A3009 RMK AO2 SLP194 I1000 T00110006


Station Type Date Time Source
KGSH Decoded METAR 2019/10/18 10:53 UTC NOAA

GOSHEN MUNICIPAL AIRPORT, IN, United States (KGSH) 41-32N 85-47W 252M
Oct 18, 2019 - 06:53 AM EDT / 2019.10.18 1053 UTC
Wind: Calm:0
Visibility: 3 mile(s):0
Sky conditions: clear
Weather: mist
Temperature: 34.0 F (1.1 C)
Dew Point: 33.1 F (0.6 C)
Relative Humidity: 96%
Pressure (altimeter): 30.09 in. Hg (1018 hPa)
ob: KGSH 181053Z AUTO 00000KT 3SM BR CLR 01/01 A3009 RMK AO2 SLP194 I1000 T00110006
cycle: 11

Station Type Date Time Source
KGSH TAF UTC NOAA

Error!

Example: see airport list